createdAt,value
2023-03-08T00:00:13.484Z,1.50
2023-03-08T00:03:15.474Z,1.46
2023-03-08T00:06:05.745Z,1.48
2023-03-08T00:09:00.616Z,1.50
2023-03-08T00:11:46.981Z,1.50
2023-03-08T00:14:33.566Z,1.53
2023-03-08T00:17:20.432Z,1.49
2023-03-08T00:20:11.106Z,1.50
2023-03-08T00:22:57.844Z,1.43
2023-03-08T00:25:45.224Z,1.37
2023-03-08T00:28:32.390Z,1.32
2023-03-08T00:31:19.787Z,1.30
2023-03-08T00:34:06.683Z,1.35
2023-03-08T00:36:54.133Z,1.41
2023-03-08T00:39:40.601Z,1.40
2023-03-08T00:42:27.552Z,1.41
2023-03-08T00:45:13.959Z,1.42
2023-03-08T00:48:00.593Z,1.42
2023-03-08T00:50:48.039Z,1.37
2023-03-08T00:53:35.430Z,1.31
2023-03-08T00:56:22.160Z,1.26
2023-03-08T00:59:08.746Z,1.24
2023-03-08T01:01:55.439Z,1.22
2023-03-08T01:04:42.091Z,1.26
2023-03-08T01:08:10.686Z,1.28
2023-03-08T01:10:59.794Z,1.22
2023-03-08T01:13:46.343Z,1.18
2023-03-08T01:16:34.068Z,1.11
2023-03-08T01:19:21.477Z,1.09
2023-03-08T01:22:08.172Z,1.04
2023-03-08T01:24:54.510Z,0.94
2023-03-08T01:27:41.114Z,0.93
2023-03-08T01:30:28.519Z,0.97
2023-03-08T01:33:15.643Z,1.01
2023-03-08T01:36:10.471Z,1.00
2023-03-08T01:39:01.663Z,1.00
2023-03-08T01:41:48.404Z,1.03
2023-03-08T01:45:00.346Z,1.00
2023-03-08T01:47:47.012Z,1.01
2023-03-08T01:50:33.787Z,1.01
2023-03-08T01:53:23.349Z,1.00
2023-03-08T01:56:13.710Z,0.95
2023-03-08T01:59:01.401Z,0.91
2023-03-08T02:01:48.855Z,0.89
2023-03-08T02:04:35.981Z,0.90
2023-03-08T02:07:22.621Z,0.93
2023-03-08T02:14:20.363Z,0.87
2023-03-08T02:17:07.281Z,0.83
2023-03-08T02:20:12.582Z,0.88
2023-03-08T02:23:11.648Z,0.89
2023-03-08T02:26:10.501Z,0.89
2023-03-08T02:28:57.282Z,0.88
2023-03-08T02:31:43.554Z,0.88
2023-03-08T02:34:31.052Z,0.94
2023-03-08T02:37:17.829Z,0.96
2023-03-08T02:40:05.210Z,0.96
2023-03-08T02:42:53.459Z,0.99
2023-03-08T02:45:40.547Z,1.01
2023-03-08T02:48:26.864Z,0.96
2023-03-08T02:51:14.215Z,1.01
2023-03-08T02:54:00.915Z,1.00
2023-03-08T02:56:47.595Z,1.03
2023-03-08T02:59:33.873Z,1.07
2023-03-08T03:02:20.701Z,1.05
2023-03-08T03:05:11.085Z,1.06
2023-03-08T03:07:58.712Z,1.00
2023-03-08T03:10:45.634Z,1.02
2023-03-08T03:13:32.317Z,1.05
2023-03-08T03:16:19.259Z,1.12
2023-03-08T03:19:05.749Z,1.17
2023-03-08T03:21:52.445Z,1.15
2023-03-08T03:24:38.915Z,1.17
2023-03-08T03:27:25.562Z,1.23
2023-03-08T03:30:12.864Z,1.22
2023-03-08T03:32:59.471Z,1.16
2023-03-08T03:35:46.017Z,1.18
2023-03-08T03:38:32.380Z,1.17
2023-03-08T03:41:21.759Z,1.25
2023-03-08T03:44:08.400Z,1.27
2023-03-08T03:46:56.525Z,1.26
2023-03-08T03:49:43.011Z,1.25
2023-03-08T03:52:29.702Z,1.27
2023-03-08T03:55:16.676Z,1.32
2023-03-08T03:58:03.483Z,1.29
2023-03-08T04:00:50.010Z,1.27
2023-03-08T04:03:37.530Z,1.29
2023-03-08T04:06:35.184Z,1.29
2023-03-08T04:09:21.647Z,1.26
2023-03-08T04:12:08.496Z,1.22
2023-03-08T04:14:57.921Z,1.21
2023-03-08T04:17:45.241Z,1.22
2023-03-08T04:20:32.148Z,1.23
2023-03-08T04:23:20.043Z,1.24
2023-03-08T04:26:07.426Z,1.21
2023-03-08T04:28:53.898Z,1.23
2023-03-08T04:31:40.257Z,1.19
2023-03-08T04:34:27.860Z,1.20
2023-03-08T04:37:14.624Z,1.19
2023-03-08T04:40:02.678Z,1.23
2023-03-08T04:42:49.477Z,1.23
2023-03-08T04:45:36.839Z,1.22
2023-03-08T04:48:26.335Z,1.18
2023-03-08T04:51:15.147Z,1.16
2023-03-08T04:54:01.898Z,1.18
2023-03-08T04:56:49.419Z,1.17
2023-03-08T04:59:36.161Z,1.23
2023-03-08T05:02:24.217Z,1.27
2023-03-08T05:05:10.728Z,1.30
2023-03-08T05:07:57.379Z,1.30
2023-03-08T05:11:00.286Z,1.31
2023-03-08T05:13:49.288Z,1.32
2023-03-08T05:16:35.721Z,1.34
2023-03-08T05:19:23.420Z,1.35
2023-03-08T05:22:09.868Z,1.34
2023-03-08T05:24:56.641Z,1.33
2023-03-08T05:27:43.280Z,1.38
2023-03-08T05:30:29.852Z,1.40
2023-03-08T05:33:17.732Z,1.39
2023-03-08T05:36:05.941Z,1.43
2023-03-08T05:38:55.957Z,1.42
2023-03-08T05:41:45.044Z,1.37
2023-03-08T05:44:31.378Z,1.34
2023-03-08T05:47:17.967Z,1.40
2023-03-08T05:50:04.856Z,1.39
2023-03-08T05:52:51.589Z,1.36
2023-03-08T05:55:38.299Z,1.33
2023-03-08T05:58:25.041Z,1.32
2023-03-08T06:01:16.829Z,1.34
2023-03-08T06:04:03.444Z,1.35
2023-03-08T06:06:49.900Z,1.32
2023-03-08T06:09:36.345Z,1.29
2023-03-08T06:12:23.830Z,1.25
2023-03-08T06:15:12.362Z,1.25
2023-03-08T06:17:59.298Z,1.22
2023-03-08T06:20:45.862Z,1.25
2023-03-08T06:23:34.625Z,1.27
2023-03-08T06:26:21.366Z,1.26
2023-03-08T06:29:08.150Z,1.25
2023-03-08T06:31:56.115Z,1.41
2023-03-08T06:34:43.272Z,1.58
2023-03-08T06:37:35.055Z,1.62
2023-03-08T06:40:38.716Z,1.63
2023-03-08T06:43:27.169Z,1.57
2023-03-08T06:46:17.352Z,1.58
2023-03-08T06:49:04.361Z,1.71
2023-03-08T06:52:35.302Z,1.76
2023-03-08T06:55:24.362Z,1.80
2023-03-08T06:58:28.750Z,1.87
2023-03-08T07:01:18.539Z,2.48
2023-03-08T07:04:05.498Z,2.71
2023-03-08T07:06:52.151Z,2.93
2023-03-08T07:09:38.816Z,2.91
2023-03-08T07:12:25.595Z,2.85
2023-03-08T07:15:19.004Z,2.99
2023-03-08T07:18:14.090Z,3.21
2023-03-08T07:21:02.681Z,3.24
2023-03-08T07:23:51.980Z,3.44
2023-03-08T07:26:38.392Z,3.69
2023-03-08T07:29:25.652Z,3.94
2023-03-08T07:32:15.336Z,4.37
2023-03-08T07:35:05.443Z,4.40
2023-03-08T07:37:51.928Z,4.70
2023-03-08T07:40:39.346Z,4.66
2023-03-08T07:43:27.370Z,4.93
2023-03-08T07:46:15.479Z,4.65
2023-03-08T07:49:02.388Z,4.40
2023-03-08T07:51:49.926Z,4.22
2023-03-08T07:54:37.012Z,3.87
2023-03-08T07:57:24.484Z,3.67
2023-03-08T08:00:11.404Z,3.68
2023-03-08T08:02:58.254Z,3.51
2023-03-08T08:05:45.464Z,3.48
2023-03-08T08:08:32.584Z,3.24
2023-03-08T08:11:22.631Z,3.25
2023-03-08T08:14:10.096Z,3.11
2023-03-08T08:16:57.415Z,3.37
2023-03-08T08:19:44.033Z,3.46
2023-03-08T08:22:30.617Z,2.85
2023-03-08T08:25:17.226Z,2.78
2023-03-08T08:28:03.914Z,2.82
2023-03-08T08:31:00.155Z,3.03
2023-03-08T08:33:46.919Z,3.66
2023-03-08T08:36:33.529Z,3.67
2023-03-08T08:39:23.988Z,3.31
2023-03-08T08:42:10.632Z,3.11
2023-03-08T08:44:57.263Z,2.98
2023-03-08T08:47:45.609Z,3.10
2023-03-08T08:50:32.683Z,3.34
2023-03-08T08:53:20.360Z,3.44
2023-03-08T08:56:25.578Z,3.70
2023-03-08T08:59:13.440Z,3.86
2023-03-08T09:01:59.837Z,3.81
2023-03-08T09:04:46.240Z,4.01
2023-03-08T09:07:32.891Z,4.13
2023-03-08T09:10:19.660Z,4.54
2023-03-08T09:13:06.755Z,5.04
2023-03-08T09:15:53.592Z,4.93
2023-03-08T09:18:40.288Z,5.53
2023-03-08T09:21:28.420Z,6.27
2023-03-08T09:24:14.968Z,6.24
2023-03-08T09:27:01.637Z,6.59
2023-03-08T09:29:48.051Z,6.53
2023-03-08T09:35:22.146Z,6.79
2023-03-08T09:38:07.192Z,6.73
2023-03-08T09:41:26.846Z,7.16
2023-03-08T09:44:43.061Z,7.81
2023-03-08T09:47:32.370Z,7.91
2023-03-08T09:50:33.875Z,7.71
2023-03-08T09:53:34.543Z,7.84
2023-03-08T09:56:43.914Z,8.25
2023-03-08T09:59:52.148Z,8.12
2023-03-08T10:02:47.558Z,7.66
2023-03-08T10:06:14.388Z,7.44
2023-03-08T10:09:11.506Z,8.05
2023-03-08T10:12:35.462Z,8.08
2023-03-08T10:15:23.307Z,8.13
2023-03-08T10:18:28.671Z,8.22
2023-03-08T10:21:18.965Z,7.80
2023-03-08T10:24:15.391Z,7.30
2023-03-08T10:27:10.235Z,7.20
2023-03-08T10:29:57.759Z,7.81
2023-03-08T10:32:46.305Z,8.36
2023-03-08T10:35:37.941Z,8.75
2023-03-08T10:38:25.833Z,9.16
2023-03-08T10:41:17.336Z,9.54
2023-03-08T10:44:03.343Z,9.16
2023-03-08T10:46:50.092Z,9.67
2023-03-08T10:49:35.477Z,10.86
2023-03-08T10:52:26.418Z,11.18
2023-03-08T10:55:14.743Z,10.30
2023-03-08T10:58:01.552Z,10.05
2023-03-08T11:00:53.693Z,9.47
2023-03-08T11:03:39.777Z,8.15
2023-03-08T11:06:25.791Z,8.05
2023-03-08T11:09:27.336Z,7.71
2023-03-08T11:12:23.405Z,7.03
2023-03-08T11:15:19.127Z,7.22
2023-03-08T11:18:41.278Z,7.16
2023-03-08T11:21:38.562Z,6.92
2023-03-08T11:25:03.990Z,6.85
2023-03-08T11:28:26.817Z,6.91
2023-03-08T11:31:18.199Z,7.13
2023-03-08T11:34:45.345Z,7.86
2023-03-08T11:37:40.115Z,8.43
2023-03-08T11:40:37.752Z,9.16
2023-03-08T11:43:31.520Z,9.64
2023-03-08T11:46:24.384Z,10.22
2023-03-08T11:49:28.330Z,10.94
2023-03-08T11:52:36.248Z,11.33
2023-03-08T11:55:49.362Z,11.62
2023-03-08T11:58:49.165Z,11.39
2023-03-08T12:02:02.516Z,12.07
2023-03-08T12:05:05.521Z,12.20
2023-03-08T12:08:13.151Z,12.42
2023-03-08T12:11:19.769Z,13.49
2023-03-08T12:14:12.788Z,13.67
2023-03-08T12:17:19.857Z,13.45
2023-03-08T12:20:08.545Z,12.91
2023-03-08T12:23:05.912Z,11.75
2023-03-08T12:26:09.834Z,11.33
2023-03-08T12:29:08.779Z,12.47
2023-03-08T12:33:40.425Z,11.36
2023-03-08T12:36:41.230Z,11.18
2023-03-08T12:39:35.721Z,10.64
2023-03-08T12:42:50.278Z,9.81
2023-03-08T12:45:36.695Z,8.74
2023-03-08T12:48:41.960Z,7.87
2023-03-08T12:51:33.295Z,7.77
2023-03-08T12:54:22.853Z,8.01
2023-03-08T12:57:21.079Z,8.66
2023-03-08T13:00:30.361Z,9.18
2023-03-08T13:03:15.620Z,8.96
2023-03-08T13:06:33.676Z,7.77
2023-03-08T13:09:28.175Z,6.96
2023-03-08T13:12:23.461Z,6.85
2023-03-08T13:15:12.893Z,7.58
2023-03-08T13:18:08.795Z,7.79
2023-03-08T13:21:18.776Z,7.94
2023-03-08T13:24:18.223Z,9.09
2023-03-08T13:27:20.966Z,10.71
2023-03-08T13:30:57.742Z,11.31
2023-03-08T13:33:48.726Z,11.41
2023-03-08T13:46:26.917Z,11.71
2023-03-08T13:49:25.846Z,11.43
2023-03-08T13:52:30.974Z,10.63
2023-03-08T13:55:25.656Z,11.42
2023-03-08T13:58:33.924Z,12.22
2023-03-08T14:01:23.171Z,12.11
2023-03-08T14:04:19.258Z,11.69
2023-03-08T14:07:06.521Z,10.90
2023-03-08T14:09:53.858Z,10.95
2023-03-08T14:12:40.531Z,10.53
2023-03-08T14:15:27.558Z,10.79
2023-03-08T14:18:22.420Z,10.40
2023-03-08T14:21:24.266Z,10.00
2023-03-08T14:24:20.365Z,9.86
2023-03-08T14:27:36.144Z,9.59
2023-03-08T14:30:25.706Z,9.18
2023-03-08T14:33:15.859Z,8.40
2023-03-08T14:36:05.986Z,7.62
2023-03-08T14:38:56.565Z,7.48
2023-03-08T14:41:43.356Z,7.36
2023-03-08T14:44:31.239Z,7.11
2023-03-08T14:47:27.216Z,6.90
2023-03-08T14:50:25.484Z,6.77
2023-03-08T14:53:34.882Z,6.56
2023-03-08T14:56:21.935Z,6.45
2023-03-08T14:59:14.000Z,6.33
2023-03-08T15:02:13.358Z,6.29
2023-03-08T15:05:02.925Z,6.17
2023-03-08T15:07:54.013Z,6.01
2023-03-08T15:10:43.715Z,6.04
2023-03-08T15:13:31.981Z,6.12
2023-03-08T15:16:21.302Z,5.99
2023-03-08T15:19:08.943Z,5.75
2023-03-08T15:21:55.738Z,5.76
2023-03-08T15:24:42.543Z,5.79
2023-03-08T15:27:30.829Z,5.78
2023-03-08T15:30:23.290Z,5.71
2023-03-08T15:33:10.013Z,5.52
2023-03-08T15:35:58.649Z,5.44
2023-03-08T15:38:45.469Z,5.33
2023-03-08T15:41:31.985Z,5.39
2023-03-08T15:44:18.863Z,5.44
2023-03-08T15:47:05.513Z,5.40
2023-03-08T15:49:52.628Z,5.37
2023-03-08T15:52:39.199Z,5.20
2023-03-08T15:55:28.449Z,5.19
2023-03-08T15:58:15.248Z,5.16
2023-03-08T16:01:02.096Z,5.15
2023-03-08T16:03:54.712Z,5.19
2023-03-08T16:06:51.873Z,5.23
2023-03-08T16:09:40.292Z,5.23
2023-03-08T16:12:27.257Z,5.20
2023-03-08T16:15:15.628Z,5.17
2023-03-08T16:18:02.158Z,5.09
2023-03-08T16:20:48.724Z,5.01
2023-03-08T16:23:36.419Z,4.94
2023-03-08T16:26:22.803Z,4.79
2023-03-08T16:29:09.727Z,4.71
2023-03-08T16:31:58.524Z,4.72
2023-03-08T16:34:51.095Z,4.75
2023-03-08T16:41:51.710Z,4.71
2023-03-08T16:44:39.065Z,4.71
2023-03-08T16:47:28.972Z,4.69
2023-03-08T16:50:30.362Z,4.73
2023-03-08T16:53:16.956Z,4.70
2023-03-08T16:56:04.644Z,4.58
2023-03-08T16:59:14.331Z,4.46
2023-03-08T17:02:01.778Z,4.44
2023-03-08T17:04:49.861Z,4.37
2023-03-08T17:07:36.789Z,4.25
2023-03-08T17:10:24.168Z,4.33
2023-03-08T17:13:12.926Z,4.31
2023-03-08T17:16:00.207Z,4.17
2023-03-08T17:18:48.739Z,4.20
2023-03-08T17:21:39.545Z,4.27
2023-03-08T17:24:28.386Z,4.29
2023-03-08T17:27:15.973Z,4.26
2023-03-08T17:30:04.140Z,4.32
2023-03-08T17:32:50.923Z,4.31
2023-03-08T17:35:42.254Z,4.29
2023-03-08T17:38:29.744Z,4.35
2023-03-08T17:41:17.086Z,4.27
2023-03-08T17:44:03.719Z,4.11
2023-03-08T17:46:50.771Z,4.02
2023-03-08T17:49:39.791Z,3.99
2023-03-08T17:52:26.472Z,3.84
2023-03-08T17:55:12.893Z,3.78
2023-03-08T17:57:59.291Z,3.71
2023-03-08T18:00:46.127Z,3.63
2023-03-08T18:03:33.989Z,3.56
2023-03-08T18:06:33.443Z,3.40
2023-03-08T18:09:19.981Z,3.29
2023-03-08T18:12:11.591Z,3.25
2023-03-08T18:14:58.557Z,3.22
2023-03-08T18:17:44.965Z,3.13
2023-03-08T18:20:31.725Z,3.04
2023-03-08T18:23:19.312Z,3.02
2023-03-08T18:26:05.722Z,3.06
2023-03-08T18:28:52.630Z,3.04
2023-03-08T18:31:40.277Z,3.08
2023-03-08T18:34:27.365Z,3.08
2023-03-08T18:37:14.846Z,2.99
2023-03-08T18:40:01.084Z,2.92
2023-03-08T18:42:47.764Z,2.93
2023-03-08T18:45:36.262Z,2.98
2023-03-08T18:48:24.378Z,2.89
2023-03-08T18:51:11.687Z,2.79
2023-03-08T18:54:00.139Z,2.76
2023-03-08T19:03:17.720Z,2.34
2023-03-08T19:06:05.235Z,2.20
2023-03-08T19:08:51.934Z,2.12
2023-03-08T19:11:39.406Z,2.05
2023-03-08T19:14:27.670Z,1.98
2023-03-08T19:17:16.345Z,1.92
2023-03-08T19:20:05.269Z,1.84
2023-03-08T19:22:52.750Z,1.79
2023-03-08T19:25:57.749Z,1.74
2023-03-08T19:28:44.131Z,1.73
2023-03-08T19:34:58.726Z,1.69
2023-03-08T19:37:45.131Z,1.72
2023-03-08T19:40:34.241Z,1.72
2023-03-08T19:43:21.104Z,1.66
2023-03-08T19:46:09.702Z,1.63
2023-03-08T19:48:56.697Z,1.68
2023-03-08T19:51:47.242Z,1.68
2023-03-08T19:54:39.267Z,1.71
2023-03-08T19:57:25.930Z,1.73
2023-03-08T20:00:13.816Z,1.78
2023-03-08T20:03:02.212Z,1.81
2023-03-08T20:05:49.169Z,1.81
2023-03-08T20:08:37.155Z,1.81
2023-03-08T20:11:24.255Z,1.81
2023-03-08T20:14:12.731Z,1.75
2023-03-08T20:17:01.875Z,1.77
2023-03-08T20:19:48.329Z,1.81
2023-03-08T20:22:35.092Z,1.81
2023-03-08T20:25:21.457Z,1.84
2023-03-08T20:28:09.187Z,1.87
2023-03-08T20:30:56.150Z,1.83
2023-03-08T20:33:43.190Z,1.86
2023-03-08T20:36:29.790Z,1.85
2023-03-08T20:39:18.319Z,1.91
2023-03-08T20:42:05.285Z,1.91
2023-03-08T20:44:52.244Z,1.91
2023-03-08T20:47:44.288Z,1.92
2023-03-08T20:50:30.767Z,1.94
2023-03-08T20:53:22.216Z,1.88
2023-03-08T20:56:12.963Z,1.89
2023-03-08T20:59:01.027Z,1.87
2023-03-08T21:01:49.312Z,1.84
2023-03-08T21:04:36.289Z,1.90
2023-03-08T21:07:23.598Z,1.89
2023-03-08T21:10:10.663Z,1.93
2023-03-08T21:12:57.147Z,2.03
2023-03-08T21:15:44.053Z,2.07
2023-03-08T21:18:30.414Z,2.07
2023-03-08T21:21:29.100Z,2.11
2023-03-08T21:24:17.423Z,2.11
2023-03-08T21:27:03.773Z,2.08
2023-03-08T21:29:50.545Z,1.99
2023-03-08T21:32:38.456Z,1.98
2023-03-08T21:35:25.242Z,1.96
2023-03-08T21:38:11.846Z,1.92
2023-03-08T21:40:58.257Z,1.84
2023-03-08T21:43:44.713Z,1.76
2023-03-08T21:46:31.124Z,1.67
2023-03-08T21:49:21.690Z,1.66
2023-03-08T21:52:09.871Z,1.63
2023-03-08T21:54:56.585Z,1.63
2023-03-08T21:57:42.839Z,1.66
2023-03-08T22:00:29.601Z,1.66
2023-03-08T22:03:16.575Z,1.62
2023-03-08T22:06:04.755Z,1.62
2023-03-08T22:08:53.753Z,1.67
2023-03-08T22:11:40.709Z,1.70
2023-03-08T22:14:28.076Z,1.66
2023-03-08T22:17:16.842Z,1.64
2023-03-08T22:20:05.483Z,1.65
2023-03-08T22:22:52.174Z,1.68
2023-03-08T22:25:38.862Z,1.65
2023-03-08T22:28:25.705Z,1.62
2023-03-08T22:31:15.826Z,1.62
2023-03-08T22:34:04.707Z,1.54
2023-03-08T22:36:51.391Z,1.51
2023-03-08T22:39:39.141Z,1.53
2023-03-08T22:42:26.017Z,1.58
2023-03-08T22:45:13.207Z,1.61
2023-03-08T22:48:00.651Z,1.63
2023-03-08T22:50:47.175Z,1.67
2023-03-08T22:53:33.553Z,1.70
2023-03-08T22:56:23.835Z,1.71
2023-03-08T22:59:12.402Z,1.69
2023-03-08T23:01:59.207Z,1.63
2023-03-08T23:04:45.906Z,1.63
2023-03-08T23:07:33.005Z,1.65
2023-03-08T23:10:19.997Z,1.67
2023-03-08T23:13:07.241Z,1.67
2023-03-08T23:15:53.747Z,1.69
2023-03-08T23:18:40.564Z,1.68
2023-03-08T23:21:32.452Z,1.63
2023-03-08T23:24:19.960Z,1.59
2023-03-08T23:27:06.450Z,1.61
2023-03-08T23:29:53.754Z,1.64
2023-03-08T23:32:42.660Z,1.63
2023-03-08T23:35:29.023Z,1.65
2023-03-08T23:38:15.535Z,1.61
2023-03-08T23:41:06.837Z,1.57
2023-03-08T23:43:55.733Z,1.54
2023-03-08T23:46:46.105Z,1.53
2023-03-08T23:49:32.843Z,1.51
2023-03-08T23:52:21.141Z,1.48
2023-03-08T23:55:08.191Z,1.45
2023-03-08T23:57:54.698Z,1.45
